Time;durP1;ratioP1;P1;durP2;ratioP2;P2;SDS_P1;SDS_P2;PMS_P1;PMS_P2;Temp;Humidity;BMP_temperature;BMP_pressure;BME280_temperature;BME280_humidity;BME280_pressure;Samples;Min_cycle;Max_cycle;Signal;HPM_P1;HPM_P2
2021/09/08 00:01:39;;;;;;;21.27;16.65;;;;;;;16.95;100.00;101864.53;4903884;30;20041;-68
2021/09/08 00:04:10;;;;;;;19.52;16.45;;;;;;;16.88;100.00;101863.44;4897369;30;20060;-68
2021/09/08 00:06:42;;;;;;;19.13;16.23;;;;;;;16.90;100.00;101856.22;4906748;30;20044;-68
2021/09/08 00:09:13;;;;;;;22.63;17.70;;;;;;;16.91;100.00;101857.88;4899975;30;20037;-68
2021/09/08 00:11:45;;;;;;;21.48;16.58;;;;;;;16.89;100.00;101855.34;4900352;30;20036;-68
2021/09/08 00:14:16;;;;;;;19.58;16.20;;;;;;;16.87;100.00;101856.50;4903868;30;20041;-68
2021/09/08 00:16:49;;;;;;;20.83;15.95;;;;;;;16.82;100.00;101842.84;4893002;30;20489;-68
2021/09/08 00:19:20;;;;;;;20.30;17.10;;;;;;;16.74;100.00;101846.22;4895883;30;20110;-68
2021/09/08 00:21:51;;;;;;;20.65;17.38;;;;;;;16.87;100.00;101853.84;4903720;30;20022;-68
2021/09/08 00:24:23;;;;;;;19.23;16.48;;;;;;;16.81;100.00;101841.19;4907299;30;20476;-68
2021/09/08 00:26:54;;;;;;;23.42;17.50;;;;;;;16.79;100.00;101844.00;4898096;30;20041;-68
2021/09/08 00:29:25;;;;;;;21.70;16.50;;;;;;;16.78;100.00;101834.38;4895747;30;20042;-68
2021/09/08 00:31:56;;;;;;;20.10;17.77;;;;;;;16.73;100.00;101837.47;4896282;30;20067;-68
2021/09/08 00:34:28;;;;;;;19.77;16.75;;;;;;;16.64;100.00;101838.31;4905961;30;20040;-68
2021/09/08 00:36:59;;;;;;;23.15;18.17;;;;;;;16.70;100.00;101832.41;4901903;30;20039;-68
2021/09/08 00:39:30;;;;;;;21.27;17.17;;;;;;;16.66;100.00;101838.97;4902857;30;20044;-68
2021/09/08 00:42:13;;;;;;;21.90;18.23;;;;;;;16.71;100.00;101830.63;4906213;30;20128;-68
2021/09/08 00:44:45;;;;;;;19.83;17.23;;;;;;;16.62;100.00;101829.66;4897724;30;20099;-68
2021/09/08 00:47:17;;;;;;;20.58;17.50;;;;;;;16.53;100.00;101830.56;4901295;30;20037;-68
2021/09/08 00:49:48;;;;;;;20.90;16.80;;;;;;;16.50;100.00;101822.91;4903223;30;20037;-68
2021/09/08 00:52:21;;;;;;;22.77;17.83;;;;;;;16.53;100.00;101823.44;4906601;30;20048;-68
2021/09/08 00:54:54;;;;;;;19.10;16.83;;;;;;;16.47;100.00;101817.91;4895719;30;20025;-68
2021/09/08 00:57:28;;;;;;;22.00;18.00;;;;;;;16.42;100.00;101823.63;4902919;30;20385;-68
2021/09/08 01:00:05;;;;;;;20.67;17.98;;;;;;;16.39;100.00;101817.78;4905382;30;20037;-68
2021/09/08 01:02:40;;;;;;;22.45;18.33;;;;;;;16.42;100.00;101810.41;4896269;30;20064;-68
2021/09/08 01:05:12;;;;;;;24.92;18.90;;;;;;;16.42;100.00;101818.34;4900626;30;20037;-68
2021/09/08 01:07:45;;;;;;;21.85;18.38;;;;;;;16.30;100.00;101816.84;4904904;30;20059;-68
2021/09/08 01:10:16;;;;;;;;;;;;;;;16.70;100.00;101813.06;4895958;30;20088;-68
2021/09/08 01:12:47;;;;;;;22.67;17.00;;;;;;;16.36;100.00;101816.25;4906319;30;20370;-68
2021/09/08 01:15:19;;;;;;;22.10;18.50;;;;;;;16.30;100.00;101807.09;4901425;30;20465;-68
2021/09/08 01:17:50;;;;;;;22.45;18.33;;;;;;;16.36;100.00;101815.44;4894801;30;20481;-68
2021/09/08 01:20:21;;;;;;;21.65;18.52;;;;;;;16.33;100.00;101808.63;4906117;30;20112;-68
2021/09/08 01:22:53;;;;;;;23.40;18.45;;;;;;;16.22;100.00;101820.22;4899268;30;20037;-68
2021/09/08 01:25:27;;;;;;;21.10;17.90;;;;;;;16.22;100.00;101819.38;4900098;30;20131;-68
2021/09/08 01:27:58;;;;;;;23.20;18.10;;;;;;;16.15;100.00;101815.63;4905841;30;20288;-68
2021/09/08 01:30:29;;;;;;;22.95;18.75;;;;;;;16.16;100.00;101814.66;4895771;30;20044;-68
2021/09/08 01:33:01;;;;;;;21.48;18.15;;;;;;;16.12;100.00;101810.63;4898278;30;20036;-68
2021/09/08 01:35:33;;;;;;;22.35;18.02;;;;;;;16.09;100.00;101811.75;4896841;30;20049;-68
2021/09/08 01:38:04;;;;;;;22.48;19.08;;;;;;;16.03;100.00;101812.31;4906005;30;20025;-68
2021/09/08 01:40:35;;;;;;;25.67;18.80;;;;;;;16.02;100.00;101806.22;4894880;30;20052;-68
2021/09/08 01:43:06;;;;;;;21.08;18.40;;;;;;;16.02;100.00;101811.50;4899939;30;20053;-68
2021/09/08 01:45:39;;;;;;;25.13;19.20;;;;;;;15.95;100.00;101804.28;4898889;30;20117;-68
2021/09/08 01:48:10;;;;;;;24.10;18.80;;;;;;;15.93;100.00;101798.28;4900422;30;20057;-68
2021/09/08 01:50:42;;;;;;;22.52;18.17;;;;;;;15.97;100.00;101792.56;4900807;30;20076;-68
2021/09/08 01:53:13;;;;;;;21.30;17.65;;;;;;;15.96;100.00;101798.00;4905649;30;20483;-68
2021/09/08 01:55:46;;;;;;;22.70;18.73;;;;;;;15.94;100.00;101797.31;4906008;30;20030;-68
2021/09/08 01:58:17;;;;;;;22.08;18.42;;;;;;;15.96;100.00;101798.00;4906439;30;20025;-68
2021/09/08 02:00:48;;;;;;;26.67;19.23;;;;;;;15.88;100.00;101796.06;4901096;30;20028;-68
2021/09/08 02:03:19;;;;;;;25.10;18.52;;;;;;;15.80;100.00;101788.84;4898508;30;20046;-68
2021/09/08 02:05:51;;;;;;;23.90;19.37;;;;;;;15.81;100.00;101787.03;4899819;30;20064;-68
2021/09/08 02:08:23;;;;;;;24.50;19.27;;;;;;;15.77;100.00;101788.31;4907667;30;20345;-68
2021/09/08 02:10:54;;;;;;;22.25;18.58;;;;;;;15.79;100.00;101787.16;4900943;30;20037;-68
2021/09/08 02:13:26;;;;;;;24.67;20.20;;;;;;;15.76;100.00;101784.00;4902855;30;20025;-68
2021/09/08 02:15:57;;;;;;;24.33;18.97;;;;;;;15.75;100.00;101779.66;4908901;30;20065;-68
2021/09/08 02:18:28;;;;;;;22.67;19.50;;;;;;;15.75;100.00;101775.22;4906041;30;20288;-68
2021/09/08 02:20:59;;;;;;;24.45;19.38;;;;;;;15.74;100.00;101773.56;4894896;30;20038;-68
2021/09/08 02:23:31;;;;;;;24.83;18.98;;;;;;;15.71;100.00;101773.00;4904424;30;20041;-68
2021/09/08 02:26:02;;;;;;;21.95;19.40;;;;;;;15.69;100.00;101774.97;4905846;30;20544;-68
2021/09/08 02:28:34;;;;;;;21.75;18.73;;;;;;;15.65;100.00;101771.78;4898874;30;20541;-68
2021/09/08 02:31:06;;;;;;;23.58;18.98;;;;;;;15.65;100.00;101776.19;4906461;30;20040;-68
2021/09/08 02:33:38;;;;;;;24.08;20.58;;;;;;;15.67;100.00;101767.16;4906174;30;20029;-68
2021/09/08 02:36:09;;;;;;;21.92;19.35;;;;;;;15.73;100.00;101774.53;4898225;30;20029;-68
2021/09/08 02:38:41;;;;;;;23.02;19.48;;;;;;;15.66;100.00;101777.88;4908503;30;20512;-68
2021/09/08 02:41:12;;;;;;;21.83;18.48;;;;;;;15.64;100.00;101772.69;4898036;30;20481;-68
2021/09/08 02:43:43;;;;;;;25.98;19.90;;;;;;;15.59;100.00;101774.94;4906871;30;20103;-68
2021/09/08 02:46:15;;;;;;;23.30;19.42;;;;;;;15.54;100.00;101766.59;4899187;30;20036;-68
2021/09/08 02:48:46;;;;;;;22.60;19.02;;;;;;;15.53;100.00;101770.19;4898543;30;20029;-68
2021/09/08 02:51:17;;;;;;;23.30;19.45;;;;;;;15.54;100.00;101766.59;4902108;30;20041;-68
2021/09/08 02:53:49;;;;;;;26.98;21.00;;;;;;;15.47;100.00;101766.31;4897592;30;20493;-68
2021/09/08 02:56:20;;;;;;;24.77;20.38;;;;;;;15.45;100.00;101765.59;4902167;30;20106;-68
2021/09/08 02:58:51;;;;;;;24.92;19.85;;;;;;;15.42;100.00;101768.56;4894401;30;20366;-68
2021/09/08 03:01:23;;;;;;;22.50;20.13;;;;;;;15.36;100.00;101757.72;4909103;30;20033;-68
2021/09/08 03:03:54;;;;;;;25.52;21.20;;;;;;;15.36;100.00;101768.25;4904742;30;20025;-68
2021/09/08 03:06:25;;;;;;;26.77;19.77;;;;;;;15.31;100.00;101763.41;4911058;30;20037;-68
2021/09/08 03:08:57;;;;;;;25.13;19.25;;;;;;;15.28;100.00;101767.16;4912420;30;20149;-68
2021/09/08 03:11:28;;;;;;;25.67;19.63;;;;;;;15.24;100.00;101764.94;4903293;30;20038;-68
2021/09/08 03:13:59;;;;;;;24.08;20.58;;;;;;;15.20;100.00;101768.81;4912228;30;20529;-68
2021/09/08 03:16:31;;;;;;;28.10;20.45;;;;;;;15.21;100.00;101768.66;4912624;30;20083;-68
2021/09/08 03:19:02;;;;;;;24.67;19.60;;;;;;;15.16;100.00;101762.16;4907517;30;20040;-68
2021/09/08 03:21:33;;;;;;;22.52;18.88;;;;;;;15.09;100.00;101757.41;4903086;30;20349;-68
2021/09/08 03:24:05;;;;;;;21.77;19.00;;;;;;;15.08;100.00;101757.56;4912103;30;20036;-68
2021/09/08 03:26:36;;;;;;;22.67;18.92;;;;;;;15.03;100.00;101763.22;4906588;30;20045;-67
2021/09/08 03:29:07;;;;;;;22.73;19.83;;;;;;;15.07;100.00;101755.88;4904843;30;20036;-68
2021/09/08 03:31:38;;;;;;;26.05;21.13;;;;;;;14.98;100.00;101746.97;4896682;30;20698;-68
2021/09/08 03:34:10;;;;;;;22.95;19.20;;;;;;;14.96;100.00;101748.91;4893500;30;20033;-68
2021/09/08 03:36:41;;;;;;;25.23;20.40;;;;;;;14.97;100.00;101749.75;4900277;30;20068;-68
2021/09/08 03:39:12;;;;;;;22.70;20.27;;;;;;;14.96;100.00;101753.34;4908799;30;20041;-68
2021/09/08 03:41:44;;;;;;;25.73;21.08;;;;;;;14.95;100.00;101749.88;4911640;30;20029;-67
2021/09/08 03:44:15;;;;;;;23.52;19.83;;;;;;;14.91;100.00;101745.03;4910043;30;20083;-68
2021/09/08 03:46:46;;;;;;;21.42;19.02;;;;;;;14.90;100.00;101746.00;4906499;30;20036;-68
2021/09/08 03:49:17;;;;;;;24.33;21.05;;;;;;;14.95;100.00;101743.78;4893986;30;20043;-68
2021/09/08 03:51:49;;;;;;;25.05;20.98;;;;;;;14.93;100.00;101740.44;4893734;30;20565;-68
2021/09/08 03:54:20;;;;;;;25.75;20.92;;;;;;;14.97;100.00;101742.69;4893268;30;20417;-68
2021/09/08 03:56:52;;;;;;;25.88;21.67;;;;;;;14.93;100.00;101740.44;4902800;30;20501;-68
2021/09/08 03:59:23;;;;;;;26.13;21.40;;;;;;;14.94;100.00;101742.94;4909049;30;20048;-68
2021/09/08 04:01:55;;;;;;;26.55;21.20;;;;;;;14.91;100.00;101737.94;4900439;30;20038;-68
2021/09/08 04:04:26;;;;;;;24.83;20.63;;;;;;;14.88;100.00;101737.38;4903942;30;20129;-68
2021/09/08 04:06:58;;;;;;;26.27;20.55;;;;;;;14.78;100.00;101743.47;4904797;30;20026;-68
2021/09/08 04:09:29;;;;;;;23.27;20.33;;;;;;;14.81;100.00;101740.56;4910511;30;20044;-68
2021/09/08 04:12:00;;;;;;;26.27;21.05;;;;;;;14.76;100.00;101734.03;4909928;30;20299;-68
2021/09/08 04:14:32;;;;;;;26.58;20.35;;;;;;;14.75;100.00;101733.19;4902097;30;20029;-68
2021/09/08 04:17:03;;;;;;;26.15;22.35;;;;;;;14.76;100.00;101728.75;4911246;30;20037;-68
2021/09/08 04:19:35;;;;;;;23.38;20.55;;;;;;;14.72;100.00;101728.19;4911378;30;20171;-68
2021/09/08 04:22:06;;;;;;;24.80;21.63;;;;;;;14.70;100.00;101724.00;4908569;30;20081;-68
2021/09/08 04:24:37;;;;;;;22.77;20.27;;;;;;;14.72;100.00;101720.25;4903819;30;20037;-68
2021/09/08 04:27:10;;;;;;;28.73;22.02;;;;;;;14.65;100.00;101724.41;4911207;30;20033;-68
2021/09/08 04:29:41;;;;;;;29.47;21.77;;;;;;;14.66;100.00;101720.81;4903022;30;20039;-67
2021/09/08 04:32:12;;;;;;;25.55;20.73;;;;;;;14.59;100.00;101722.34;4900924;30;20026;-67
2021/09/08 04:34:43;;;;;;;24.73;20.33;;;;;;;14.60;100.00;101724.81;4897039;30;20037;-67
2021/09/08 04:37:15;;;;;;;26.08;21.40;;;;;;;14.60;100.00;101718.72;4907196;30;20033;-67
2021/09/08 04:39:46;;;;;;;25.05;21.10;;;;;;;14.58;100.00;101726.78;4903759;30;20041;-67
2021/09/08 04:42:17;;;;;;;23.20;19.67;;;;;;;14.61;100.00;101723.00;4900645;30;20141;-67
2021/09/08 04:44:49;;;;;;;25.92;22.05;;;;;;;14.56;100.00;101722.59;4900671;30;20052;-67
2021/09/08 04:47:20;;;;;;;24.90;20.90;;;;;;;14.53;100.00;101714.94;4903381;30;20037;-67
2021/09/08 04:49:51;;;;;;;25.58;21.30;;;;;;;14.55;100.00;101727.03;4898102;30;20036;-67
2021/09/08 04:52:23;;;;;;;24.90;20.95;;;;;;;14.52;100.00;101718.56;4895640;30;20022;-67
2021/09/08 04:54:54;;;;;;;28.77;23.20;;;;;;;14.49;100.00;101713.50;4904284;30;20064;-67
2021/09/08 04:57:25;;;;;;;26.65;21.60;;;;;;;14.49;100.00;101722.28;4902952;30;20048;-67
2021/09/08 04:59:56;;;;;;;29.15;21.92;;;;;;;14.49;100.00;101718.78;4900118;30;20039;-67
2021/09/08 05:02:28;;;;;;;26.10;22.02;;;;;;;14.49;100.00;101716.16;4909326;30;20037;-67
2021/09/08 05:05:01;;;;;;;26.50;22.45;;;;;;;14.52;100.00;101715.91;4899105;30;20029;-67
2021/09/08 05:07:32;;;;;;;26.80;21.98;;;;;;;14.48;100.00;101709.22;4896626;30;20041;-67
2021/09/08 05:10:04;;;;;;;27.05;22.42;;;;;;;14.46;100.00;101711.13;4892024;30;20056;-67
2021/09/08 05:12:36;;;;;;;27.65;22.55;;;;;;;14.45;100.00;101710.31;4900937;30;20037;-67
2021/09/08 05:15:08;;;;;;;26.73;22.15;;;;;;;14.50;100.00;101710.75;4901096;30;20128;-67
2021/09/08 05:17:39;;;;;;;26.23;22.45;;;;;;;14.51;100.00;101701.06;4900612;30;20036;-67
2021/09/08 05:20:11;;;;;;;27.70;22.52;;;;;;;14.46;100.00;101705.88;4902203;30;20025;-67
2021/09/08 05:22:42;;;;;;;29.33;21.73;;;;;;;14.48;100.00;101703.94;4899749;30;20551;-67
2021/09/08 05:25:14;;;;;;;24.30;21.52;;;;;;;14.44;100.00;101699.91;4904601;30;20029;-67
2021/09/08 05:27:45;;;;;;;28.60;22.25;;;;;;;14.45;100.00;101705.03;4902753;30;20030;-67
2021/09/08 05:30:16;;;;;;;25.67;21.33;;;;;;;14.45;100.00;101704.22;4900202;30;20111;-67
2021/09/08 05:32:47;;;;;;;24.42;21.10;;;;;;;14.49;100.00;101701.19;4896206;30;20056;-67
2021/09/08 05:35:19;;;;;;;25.73;21.95;;;;;;;14.51;100.00;101701.91;4903006;30;20080;-67
2021/09/08 05:37:50;;;;;;;27.85;22.20;;;;;;;14.50;100.00;101708.13;4905028;30;20041;-67
2021/09/08 05:40:22;;;;;;;27.00;21.35;;;;;;;14.52;100.00;101700.09;4906997;30;20119;-67
2021/09/08 05:42:53;;;;;;;27.67;22.42;;;;;;;14.53;100.00;101699.94;4896248;30;20051;-67
2021/09/08 05:45:25;;;;;;;26.33;22.27;;;;;;;14.56;100.00;101699.69;4900620;30;20036;-67
2021/09/08 05:47:56;;;;;;;27.13;22.23;;;;;;;14.56;100.00;101696.22;4902307;30;20029;-67
2021/09/08 05:50:27;;;;;;;28.45;22.92;;;;;;;14.59;100.00;101699.44;4906890;30;20393;-67
2021/09/08 05:53:02;;;;;;;30.58;23.45;;;;;;;14.65;100.00;101703.31;4898610;30;20132;-67
2021/09/08 05:55:34;;;;;;;29.02;23.55;;;;;;;14.71;100.00;101699.31;4900759;30;20061;-67
2021/09/08 05:58:05;;;;;;;28.58;22.90;;;;;;;14.74;100.00;101706.97;4904023;30;20435;-67
2021/09/08 06:00:36;;;;;;;27.20;23.13;;;;;;;14.76;100.00;101705.00;4908649;30;20033;-67
2021/09/08 06:03:08;;;;;;;28.95;22.58;;;;;;;14.80;100.00;101701.94;4905532;30;20080;-67
2021/09/08 06:05:39;;;;;;;29.15;22.17;;;;;;;14.81;100.00;101693.09;4905388;30;20037;-67
2021/09/08 06:08:10;;;;;;;30.58;24.15;;;;;;;14.86;100.00;101694.47;4901799;30;20042;-67
2021/09/08 06:10:42;;;;;;;30.50;22.90;;;;;;;14.93;100.00;101692.97;4890091;30;20037;-67
2021/09/08 06:13:13;;;;;;;29.40;22.33;;;;;;;14.96;100.00;101697.94;4896614;30;20029;-67
2021/09/08 06:15:44;;;;;;;27.77;22.42;;;;;;;15.02;100.00;101692.94;4902440;30;20065;-67
2021/09/08 06:18:16;;;;;;;30.23;22.48;;;;;;;15.08;100.00;101696.84;4910156;30;20054;-67
2021/09/08 06:20:47;;;;;;;27.33;23.05;;;;;;;15.11;100.00;101691.28;4908601;30;20033;-67
2021/09/08 06:23:18;;;;;;;31.08;22.83;;;;;;;15.21;100.00;101697.41;4898521;30;20034;-67
2021/09/08 06:25:50;;;;;;;27.88;22.20;;;;;;;15.26;100.00;101699.59;4907842;30;20064;-67
2021/09/08 06:28:23;;;;;;;32.75;21.85;;;;;;;15.37;100.00;101693.34;4909553;30;20100;-67
2021/09/08 06:30:54;;;;;;;29.40;21.58;;;;;;;15.46;100.00;101695.16;4905934;30;20033;-67
2021/09/08 06:33:26;;;;;;;26.02;21.73;;;;;;;15.50;100.00;101697.38;4903202;30;20047;-67
2021/09/08 06:35:57;;;;;;;27.67;21.80;;;;;;;15.61;100.00;101693.75;4901261;30;20041;-67
2021/09/08 06:38:28;;;;;;;28.33;22.15;;;;;;;15.64;100.00;101689.97;4901229;30;20037;-67
2021/09/08 06:41:00;;;;;;;28.48;22.50;;;;;;;15.82;100.00;101678.56;4911443;30;20033;-67
2021/09/08 06:43:31;;;;;;;28.83;22.10;;;;;;;15.84;100.00;101682.88;4912759;30;20045;-67
2021/09/08 06:46:03;;;;;;;29.27;22.10;;;;;;;15.90;100.00;101677.00;4905546;30;20711;-67
2021/09/08 06:48:34;;;;;;;28.88;21.40;;;;;;;16.02;100.00;101681.97;4897724;30;20393;-67
2021/09/08 06:51:06;;;;;;;27.25;20.85;;;;;;;16.07;100.00;101681.53;4893403;30;20033;-67
2021/09/08 06:53:38;;;;;;;29.13;21.80;;;;;;;16.13;100.00;101669.53;4895503;30;20041;-67
2021/09/08 06:56:09;;;;;;;26.38;22.08;;;;;;;16.23;100.00;101667.69;4905400;30;20033;-67
2021/09/08 06:58:40;;;;;;;26.25;21.40;;;;;;;16.29;100.00;101667.13;4911121;30;20064;-67
2021/09/08 07:01:11;;;;;;;24.55;20.98;;;;;;;16.32;100.00;101665.97;4896900;30;20293;-67
2021/09/08 07:03:43;;;;;;;25.60;20.80;;;;;;;16.28;100.00;101663.59;4901452;30;20048;-67
2021/09/08 07:06:14;;;;;;;26.92;19.95;;;;;;;16.50;100.00;101662.38;4906942;30;20031;-67
2021/09/08 07:08:45;;;;;;;25.35;20.88;;;;;;;16.49;100.00;101673.94;4912349;30;20048;-67
2021/09/08 07:11:18;;;;;;;25.77;21.07;;;;;;;16.70;100.00;101665.72;4912289;30;20031;-67
2021/09/08 07:13:49;;;;;;;24.38;20.73;;;;;;;16.76;100.00;101659.03;4902008;30;20291;-67
2021/09/08 07:16:20;;;;;;;27.92;20.40;;;;;;;16.92;100.00;101656.53;4894518;30;20040;-67
2021/09/08 07:18:52;;;;;;;23.05;19.95;;;;;;;16.91;100.00;101654.06;4894414;30;20523;-67
2021/09/08 07:21:23;;;;;;;25.48;18.60;;;;;;;17.00;100.00;101653.13;4893559;30;20061;-67
2021/09/08 07:23:54;;;;;;;23.88;19.70;;;;;;;17.18;100.00;101653.94;4903783;30;20029;-67
2021/09/08 07:26:32;;;;;;;23.08;18.90;;;;;;;17.31;100.00;101652.72;4912513;30;20112;-67
2021/09/08 07:29:05;;;;;;;24.30;19.50;;;;;;;17.43;100.00;101647.03;4912314;30;20032;-67
2021/09/08 07:31:37;;;;;;;23.40;18.48;;;;;;;17.50;100.00;101649.84;4898212;30;20037;-67
2021/09/08 07:34:08;;;;;;;24.67;19.63;;;;;;;17.59;100.00;101646.28;4905524;30;20051;-67
2021/09/08 07:36:39;;;;;;;25.55;19.10;;;;;;;17.68;100.00;101648.00;4898940;30;20120;-67
2021/09/08 07:39:11;;;;;;;24.30;18.77;;;;;;;17.82;100.00;101651.91;4894182;30;20036;-67
2021/09/08 07:41:42;;;;;;;22.40;18.13;;;;;;;17.91;100.00;101645.66;4902133;30;20038;-67
2021/09/08 07:44:14;;;;;;;24.08;19.27;;;;;;;18.02;100.00;101635.75;4911666;30;20424;-67
2021/09/08 07:46:45;;;;;;;23.02;18.38;;;;;;;18.01;100.00;101636.75;4904991;30;20473;-67
2021/09/08 07:49:16;;;;;;;22.67;18.80;;;;;;;18.17;100.00;101635.00;4900693;30;20449;-67
2021/09/08 07:51:47;;;;;;;22.53;18.27;;;;;;;18.21;100.00;101636.31;4910298;30;20036;-67
2021/09/08 07:54:19;;;;;;;21.83;18.13;;;;;;;18.29;100.00;101634.69;4911681;30;20029;-67
2021/09/08 07:56:50;;;;;;;19.85;17.42;;;;;;;18.43;100.00;101626.13;4907018;30;20238;-67
2021/09/08 07:59:22;;;;;;;22.27;17.65;;;;;;;18.54;100.00;101631.13;4904241;30;20029;-67
2021/09/08 08:01:54;;;;;;;22.48;17.40;;;;;;;18.69;100.00;101626.81;4893664;30;20481;-67
2021/09/08 08:04:25;;;;;;;21.55;17.02;;;;;;;18.78;100.00;101633.00;4900666;30;20040;-67
2021/09/08 08:06:57;;;;;;;18.93;15.30;;;;;;;18.88;100.00;101627.53;4903949;30;20033;-67
2021/09/08 08:09:28;;;;;;;20.35;15.75;;;;;;;19.07;100.00;101637.00;4911481;30;20033;-67
2021/09/08 08:11:59;;;;;;;20.63;16.05;;;;;;;19.18;100.00;101631.34;4911816;30;20033;-67
2021/09/08 08:14:31;;;;;;;20.47;16.27;;;;;;;19.19;100.00;101636.50;4900509;30;20034;-67
2021/09/08 08:17:04;;;;;;;23.17;16.73;;;;;;;19.39;100.00;101622.84;4911324;30;20116;-67
2021/09/08 08:19:35;;;;;;;21.17;17.58;;;;;;;19.55;100.00;101629.97;4910672;30;20036;-67
2021/09/08 08:22:06;;;;;;;19.75;16.02;;;;;;;19.71;100.00;101629.13;4900041;30;20507;-67
2021/09/08 08:24:38;;;;;;;19.42;15.52;;;;;;;19.74;100.00;101628.78;4904147;30;20060;-67
2021/09/08 08:27:09;;;;;;;20.83;16.57;;;;;;;19.81;100.00;101625.28;4911734;30;20044;-67
2021/09/08 08:29:41;;;;;;;19.77;16.85;;;;;;;19.95;100.00;101622.88;4909294;30;20091;-67
2021/09/08 08:32:12;;;;;;;19.83;16.80;;;;;;;20.01;100.00;101622.22;4897038;30;20507;-67
2021/09/08 08:34:43;;;;;;;17.90;15.57;;;;;;;20.21;100.00;101623.41;4899674;30;20087;-67
2021/09/08 08:37:14;;;;;;;17.77;15.83;;;;;;;20.27;100.00;101621.91;4910677;30;20393;-67
2021/09/08 08:39:46;;;;;;;20.27;15.37;;;;;;;20.47;100.00;101630.28;4908453;30;20446;-67
2021/09/08 08:42:24;;;;;;;18.37;15.93;;;;;;;20.61;100.00;101625.06;4899531;30;20413;-67
2021/09/08 08:44:55;;;;;;;24.20;16.23;;;;;;;20.67;100.00;101622.69;4909831;30;20025;-67
2021/09/08 08:47:27;;;;;;;21.33;16.30;;;;;;;20.85;100.00;101625.88;4898324;30;20040;-67
2021/09/08 08:49:59;;;;;;;;;;;;;;;21.12;100.00;101619.13;4898590;30;20064;-67
2021/09/08 08:52:31;;;;;;;20.10;15.55;;;;;;;21.09;100.00;101625.66;4899833;30;20297;-68
2021/09/08 08:55:02;;;;;;;17.80;15.13;;;;;;;21.26;100.00;101622.84;4899194;30;20029;-68
2021/09/08 08:57:34;;;;;;;19.77;16.47;;;;;;;21.38;100.00;101613.44;4903436;30;20044;-68
2021/09/08 09:00:06;;;;;;;18.93;15.90;;;;;;;21.52;100.00;101627.78;4902621;30;20041;-68
2021/09/08 09:02:39;;;;;;;19.40;17.33;;;;;;;21.62;100.00;101615.00;4893493;30;20033;-69
2021/09/08 09:05:10;;;;;;;17.08;14.88;;;;;;;21.68;100.00;101618.78;4906915;30;20072;-68
2021/09/08 09:07:43;;;;;;;16.80;14.83;;;;;;;21.89;100.00;101618.00;4894799;30;20057;-68
2021/09/08 09:10:15;;;;;;;18.35;15.23;;;;;;;22.00;100.00;101620.22;4892690;30;20041;-68
2021/09/08 09:12:47;;;;;;;18.10;14.67;;;;;;;22.14;100.00;101618.56;4894057;30;20037;-68
2021/09/08 09:15:20;;;;;;;17.13;14.57;;;;;;;22.18;100.00;101623.34;4902858;30;20036;-68
2021/09/08 09:17:52;;;;;;;19.08;15.45;;;;;;;22.34;100.00;101619.59;4908744;30;20083;-68
2021/09/08 09:20:30;;;;;;;17.48;14.45;;;;;;;22.56;100.00;101623.94;4910444;30;20032;-66
2021/09/08 09:23:03;;;;;;;20.17;15.00;;;;;;;22.63;100.00;101617.88;4906707;30;20115;-68
2021/09/08 09:25:38;;;;;;;17.67;14.68;;;;;;;22.64;100.00;101620.34;4902552;30;20048;-68
2021/09/08 09:28:10;;;;;;;18.30;15.88;;;;;;;22.79;100.00;101615.75;4892036;30;20481;-68
2021/09/08 09:30:41;;;;;;;19.50;14.73;;;;;;;22.91;100.00;101616.09;4894352;30;20052;-68
2021/09/08 09:33:25;;;;;;;20.43;16.90;;;;;;;22.91;100.00;101604.53;4902037;30;20465;-69
2021/09/08 09:36:12;;;;;;;21.10;15.48;;;;;;;23.04;100.00;101621.53;4911066;30;20036;-68
2021/09/08 09:38:45;;;;;;;21.42;17.20;;;;;;;22.98;99.74;101613.47;4909968;30;20677;-68
2021/09/08 09:41:17;;;;;;;;;;;;;;;23.38;100.00;101601.22;4901120;30;20041;-68
2021/09/08 09:43:49;;;;;;;18.52;14.75;;;;;;;23.25;99.23;101604.63;4908366;30;20410;-69
2021/09/08 09:46:20;;;;;;;17.40;14.10;;;;;;;23.40;100.00;101598.34;4902580;30;20069;-68
2021/09/08 09:48:51;;;;;;;16.20;14.50;;;;;;;23.66;97.98;101589.66;4903403;30;20041;-67
2021/09/08 09:51:25;;;;;;;16.67;14.20;;;;;;;23.79;97.20;101592.44;4902976;30;20052;-68
2021/09/08 09:53:57;;;;;;;21.45;15.50;;;;;;;23.81;96.43;101590.38;4910180;30;20295;-68
2021/09/08 09:56:28;;;;;;;19.37;14.80;;;;;;;23.92;97.08;101575.59;4907937;30;20568;-68
2021/09/08 09:59:00;;;;;;;15.67;13.97;;;;;;;24.02;97.61;101576.88;4902581;30;20079;-68
2021/09/08 10:01:31;;;;;;;16.20;13.73;;;;;;;24.15;96.86;101580.59;4905829;30;20074;-68
2021/09/08 10:04:03;;;;;;;18.93;15.57;;;;;;;24.17;97.16;101571.34;4909893;30;20033;-67
2021/09/08 10:06:35;;;;;;;18.67;14.50;;;;;;;24.48;96.18;101578.03;4899196;30;20041;-68
2021/09/08 10:09:11;;;;;;;16.20;14.32;;;;;;;24.57;95.40;101570.59;4909714;30;20481;-68
2021/09/08 10:11:46;;;;;;;17.58;14.07;;;;;;;24.65;94.52;101565.03;4910501;30;20067;-68
2021/09/08 10:14:23;;;;;;;22.50;16.08;;;;;;;24.55;93.68;101562.78;4908317;30;20102;-69
2021/09/08 10:17:00;;;;;;;16.50;13.95;;;;;;;24.73;94.05;101562.16;4906533;30;20048;-68
2021/09/08 10:19:32;;;;;;;19.70;14.27;;;;;;;24.77;91.45;101558.03;4913238;30;20129;-68
2021/09/08 10:22:08;;;;;;;14.20;12.80;;;;;;;24.92;94.12;101555.97;4912403;30;20120;-69
2021/09/08 10:24:45;;;;;;;17.83;14.02;;;;;;;24.93;93.50;101546.91;4905707;30;20456;-69
2021/09/08 10:27:23;;;;;;;19.27;15.68;;;;;;;24.89;93.38;101547.50;4913676;30;20111;-68
2021/09/08 10:29:55;;;;;;;19.27;14.15;;;;;;;25.00;91.31;101541.50;4897910;30;20065;-69
2021/09/08 10:32:26;;;;;;;19.13;15.13;;;;;;;25.04;90.96;101540.09;4906025;30;20032;-69
2021/09/08 10:34:58;;;;;;;15.47;13.87;;;;;;;25.07;90.89;101533.47;4904496;30;20480;-68
2021/09/08 10:37:29;;;;;;;15.60;13.60;;;;;;;25.33;92.02;101530.75;4895426;30;20036;-68
2021/09/08 10:40:01;;;;;;;15.93;14.30;;;;;;;25.29;91.61;101528.72;4901621;30;20116;-69
2021/09/08 10:42:48;;;;;;;16.60;14.15;;;;;;;25.54;92.40;101526.16;4901575;30;20049;-69
2021/09/08 10:45:50;;;;;;;18.30;13.40;;;;;;;25.62;92.27;101516.00;4894783;30;20378;-69
2021/09/08 10:48:37;;;;;;;16.55;12.85;;;;;;;25.70;90.69;101514.94;4901812;30;20087;-69
2021/09/08 10:51:16;;;;;;;21.85;14.30;;;;;;;25.57;90.13;101517.66;4894519;30;20041;-69
2021/09/08 10:54:07;;;;;;;17.90;14.60;;;;;;;25.68;91.16;101503.56;4894717;30;20037;-69
2021/09/08 10:56:44;;;;;;;13.75;12.10;;;;;;;25.85;89.44;101507.44;4901233;30;20073;-69
2021/09/08 10:59:15;;;;;;;15.38;13.30;;;;;;;25.89;87.94;101503.28;4903810;30;20094;-69
2021/09/08 11:01:51;;;;;;;15.73;12.90;;;;;;;26.20;87.89;101501.63;4894673;30;20037;-69
2021/09/08 11:04:22;;;;;;;16.10;12.80;;;;;;;26.17;86.22;101494.00;4894183;30;20037;-69
2021/09/08 11:06:53;;;;;;;16.30;12.70;;;;;;;26.50;87.27;101493.78;4903955;30;20037;-69
2021/09/08 11:09:26;;;;;;;15.30;13.07;;;;;;;26.28;87.89;101487.13;4912504;30;20025;-69
2021/09/08 11:11:58;;;;;;;16.25;11.88;;;;;;;26.37;87.13;101492.00;4896741;30;20073;-69
2021/09/08 11:14:50;;;;;;;14.02;12.07;;;;;;;26.49;87.14;101494.03;4901027;30;20037;-69
2021/09/08 11:17:23;;;;;;;13.65;11.13;;;;;;;26.43;87.09;101480.38;4907426;30;20045;-68
2021/09/08 11:19:56;;;;;;;16.33;11.80;;;;;;;26.39;85.55;101484.53;4912225;30;20029;-69
2021/09/08 11:22:27;;;;;;;11.93;10.73;;;;;;;26.72;85.10;101482.66;4905387;30;20037;-68
2021/09/08 11:25:07;;;;;;;15.00;11.20;;;;;;;26.69;85.45;101478.53;4905181;30;20481;-69
2021/09/08 11:27:40;;;;;;;12.90;11.50;;;;;;;26.76;81.64;101479.28;4894072;30;20096;-69